sensor_id;sensor_type;location;lat;lon;timestamp;temperature;humidity
75931;DHT22;64609;47.052;15.462;2023-12-20T00:02:18;5.20;63.80
75931;DHT22;64609;47.052;15.462;2023-12-20T00:04:44;5.30;63.80
75931;DHT22;64609;47.052;15.462;2023-12-20T00:07:10;5.30;63.70
75931;DHT22;64609;47.052;15.462;2023-12-20T00:09:35;5.20;63.70
75931;DHT22;64609;47.052;15.462;2023-12-20T00:12:01;5.20;63.60
75931;DHT22;64609;47.052;15.462;2023-12-20T00:14:26;5.10;63.60
75931;DHT22;64609;47.052;15.462;2023-12-20T00:16:52;5.10;63.80
75931;DHT22;64609;47.052;15.462;2023-12-20T00:19:18;5.10;64.10
75931;DHT22;64609;47.052;15.462;2023-12-20T00:21:43;5.10;64.00
75931;DHT22;64609;47.052;15.462;2023-12-20T00:24:09;5.10;64.10
75931;DHT22;64609;47.052;15.462;2023-12-20T00:26:34;5.10;64.10
75931;DHT22;64609;47.052;15.462;2023-12-20T00:29:00;5.10;64.20
75931;DHT22;64609;47.052;15.462;2023-12-20T00:31:25;5.10;64.20
75931;DHT22;64609;47.052;15.462;2023-12-20T00:33:51;5.10;64.20
75931;DHT22;64609;47.052;15.462;2023-12-20T00:36:17;5.10;64.20
75931;DHT22;64609;47.052;15.462;2023-12-20T00:38:42;5.00;64.00
75931;DHT22;64609;47.052;15.462;2023-12-20T00:41:08;5.00;63.90
75931;DHT22;64609;47.052;15.462;2023-12-20T00:43:33;4.90;63.70
75931;DHT22;64609;47.052;15.462;2023-12-20T00:45:59;4.90;64.00
75931;DHT22;64609;47.052;15.462;2023-12-20T00:48:25;4.90;63.90
75931;DHT22;64609;47.052;15.462;2023-12-20T00:50:52;4.90;63.80
75931;DHT22;64609;47.052;15.462;2023-12-20T00:53:18;4.80;63.90
75931;DHT22;64609;47.052;15.462;2023-12-20T00:55:44;4.90;64.10
75931;DHT22;64609;47.052;15.462;2023-12-20T00:58:10;4.90;64.10
75931;DHT22;64609;47.052;15.462;2023-12-20T01:00:36;4.90;63.90
75931;DHT22;64609;47.052;15.462;2023-12-20T01:03:01;4.80;64.80
75931;DHT22;64609;47.052;15.462;2023-12-20T01:05:27;4.90;63.90
75931;DHT22;64609;47.052;15.462;2023-12-20T01:07:53;4.80;63.90
75931;DHT22;64609;47.052;15.462;2023-12-20T01:10:18;4.80;63.90
75931;DHT22;64609;47.052;15.462;2023-12-20T01:12:44;4.80;63.90
75931;DHT22;64609;47.052;15.462;2023-12-20T01:15:10;4.70;64.00
75931;DHT22;64609;47.052;15.462;2023-12-20T01:17:35;4.80;64.10
75931;DHT22;64609;47.052;15.462;2023-12-20T01:20:02;4.70;64.20
75931;DHT22;64609;47.052;15.462;2023-12-20T01:22:27;4.80;64.40
75931;DHT22;64609;47.052;15.462;2023-12-20T01:24:53;4.80;64.40
75931;DHT22;64609;47.052;15.462;2023-12-20T01:27:19;4.80;64.40
75931;DHT22;64609;47.052;15.462;2023-12-20T01:29:44;4.70;64.50
75931;DHT22;64609;47.052;15.462;2023-12-20T01:32:10;4.80;64.60
75931;DHT22;64609;47.052;15.462;2023-12-20T01:34:36;4.80;64.40
75931;DHT22;64609;47.052;15.462;2023-12-20T01:37:01;4.70;64.10
75931;DHT22;64609;47.052;15.462;2023-12-20T01:39:28;4.70;64.10
75931;DHT22;64609;47.052;15.462;2023-12-20T01:41:53;4.80;64.20
75931;DHT22;64609;47.052;15.462;2023-12-20T01:44:19;4.70;64.00
75931;DHT22;64609;47.052;15.462;2023-12-20T01:46:45;4.70;64.00
75931;DHT22;64609;47.052;15.462;2023-12-20T01:49:11;4.60;64.00
75931;DHT22;64609;47.052;15.462;2023-12-20T01:51:37;4.60;64.20
75931;DHT22;64609;47.052;15.462;2023-12-20T01:54:03;4.60;64.30
75931;DHT22;64609;47.052;15.462;2023-12-20T01:56:29;4.60;64.30
75931;DHT22;64609;47.052;15.462;2023-12-20T01:58:56;4.60;64.20
75931;DHT22;64609;47.052;15.462;2023-12-20T02:01:22;4.60;64.20
75931;DHT22;64609;47.052;15.462;2023-12-20T02:03:48;4.60;64.30
75931;DHT22;64609;47.052;15.462;2023-12-20T02:06:13;4.60;64.30
75931;DHT22;64609;47.052;15.462;2023-12-20T02:08:39;4.60;64.30
75931;DHT22;64609;47.052;15.462;2023-12-20T02:11:05;4.60;64.40
75931;DHT22;64609;47.052;15.462;2023-12-20T02:13:31;4.50;64.50
75931;DHT22;64609;47.052;15.462;2023-12-20T02:15:57;4.50;64.40
75931;DHT22;64609;47.052;15.462;2023-12-20T02:18:23;4.50;64.40
75931;DHT22;64609;47.052;15.462;2023-12-20T02:20:49;4.60;64.60
75931;DHT22;64609;47.052;15.462;2023-12-20T02:23:14;4.60;64.70
75931;DHT22;64609;47.052;15.462;2023-12-20T02:25:40;4.60;64.60
75931;DHT22;64609;47.052;15.462;2023-12-20T02:28:05;4.70;64.70
75931;DHT22;64609;47.052;15.462;2023-12-20T02:30:32;4.60;64.50
75931;DHT22;64609;47.052;15.462;2023-12-20T02:32:59;4.60;64.60
75931;DHT22;64609;47.052;15.462;2023-12-20T02:35:25;4.60;65.60
75931;DHT22;64609;47.052;15.462;2023-12-20T02:37:51;4.60;64.70
75931;DHT22;64609;47.052;15.462;2023-12-20T02:40:16;4.60;64.60
75931;DHT22;64609;47.052;15.462;2023-12-20T02:42:42;4.60;64.60
75931;DHT22;64609;47.052;15.462;2023-12-20T02:45:08;4.60;64.70
75931;DHT22;64609;47.052;15.462;2023-12-20T02:47:33;4.60;64.70
75931;DHT22;64609;47.052;15.462;2023-12-20T02:49:59;4.60;64.60
75931;DHT22;64609;47.052;15.462;2023-12-20T02:52:25;4.50;64.50
75931;DHT22;64609;47.052;15.462;2023-12-20T02:54:50;4.50;64.50
75931;DHT22;64609;47.052;15.462;2023-12-20T02:57:16;4.50;64.50
75931;DHT22;64609;47.052;15.462;2023-12-20T02:59:42;4.50;64.50
75931;DHT22;64609;47.052;15.462;2023-12-20T03:02:07;4.50;64.50
75931;DHT22;64609;47.052;15.462;2023-12-20T03:04:33;4.40;64.50
75931;DHT22;64609;47.052;15.462;2023-12-20T03:06:58;4.40;64.60
75931;DHT22;64609;47.052;15.462;2023-12-20T03:09:24;4.40;64.50
75931;DHT22;64609;47.052;15.462;2023-12-20T03:11:50;4.40;64.40
75931;DHT22;64609;47.052;15.462;2023-12-20T03:14:15;4.40;64.20
75931;DHT22;64609;47.052;15.462;2023-12-20T03:16:41;4.40;64.10
75931;DHT22;64609;47.052;15.462;2023-12-20T03:19:07;4.30;64.00
75931;DHT22;64609;47.052;15.462;2023-12-20T03:21:32;4.30;64.10
75931;DHT22;64609;47.052;15.462;2023-12-20T03:23:58;4.30;64.20
75931;DHT22;64609;47.052;15.462;2023-12-20T03:26:23;4.20;64.10
75931;DHT22;64609;47.052;15.462;2023-12-20T03:28:49;4.20;64.20
75931;DHT22;64609;47.052;15.462;2023-12-20T03:31:15;4.20;64.70
75931;DHT22;64609;47.052;15.462;2023-12-20T03:33:40;4.20;64.20
75931;DHT22;64609;47.052;15.462;2023-12-20T03:36:06;4.20;64.30
75931;DHT22;64609;47.052;15.462;2023-12-20T03:38:32;4.20;64.30
75931;DHT22;64609;47.052;15.462;2023-12-20T03:40:57;4.20;64.40
75931;DHT22;64609;47.052;15.462;2023-12-20T03:43:23;4.20;64.40
75931;DHT22;64609;47.052;15.462;2023-12-20T03:45:48;4.20;64.50
75931;DHT22;64609;47.052;15.462;2023-12-20T03:48:14;4.20;64.70
75931;DHT22;64609;47.052;15.462;2023-12-20T03:50:40;4.20;64.70
75931;DHT22;64609;47.052;15.462;2023-12-20T03:53:05;4.20;64.70
75931;DHT22;64609;47.052;15.462;2023-12-20T03:55:31;4.20;64.80
75931;DHT22;64609;47.052;15.462;2023-12-20T03:57:56;4.30;64.90
75931;DHT22;64609;47.052;15.462;2023-12-20T04:00:22;4.30;64.60
75931;DHT22;64609;47.052;15.462;2023-12-20T04:02:47;4.30;64.30
75931;DHT22;64609;47.052;15.462;2023-12-20T04:05:13;4.20;64.20
75931;DHT22;64609;47.052;15.462;2023-12-20T04:07:39;4.20;64.20
75931;DHT22;64609;47.052;15.462;2023-12-20T04:10:05;4.20;64.00
75931;DHT22;64609;47.052;15.462;2023-12-20T04:12:31;4.10;64.20
75931;DHT22;64609;47.052;15.462;2023-12-20T04:14:57;4.10;64.20
75931;DHT22;64609;47.052;15.462;2023-12-20T04:17:23;4.10;64.30
75931;DHT22;64609;47.052;15.462;2023-12-20T04:19:49;4.10;64.30
75931;DHT22;64609;47.052;15.462;2023-12-20T04:22:15;4.10;64.30
75931;DHT22;64609;47.052;15.462;2023-12-20T04:24:41;4.10;64.40
75931;DHT22;64609;47.052;15.462;2023-12-20T04:27:09;4.10;64.50
75931;DHT22;64609;47.052;15.462;2023-12-20T04:29:35;4.10;64.40
75931;DHT22;64609;47.052;15.462;2023-12-20T04:32:01;4.10;64.40
75931;DHT22;64609;47.052;15.462;2023-12-20T04:34:26;4.00;64.30
75931;DHT22;64609;47.052;15.462;2023-12-20T04:36:53;4.00;64.20
75931;DHT22;64609;47.052;15.462;2023-12-20T04:39:18;3.90;64.40
75931;DHT22;64609;47.052;15.462;2023-12-20T04:41:44;3.90;64.20
75931;DHT22;64609;47.052;15.462;2023-12-20T04:44:10;3.80;64.40
75931;DHT22;64609;47.052;15.462;2023-12-20T04:46:35;3.70;64.60
75931;DHT22;64609;47.052;15.462;2023-12-20T04:49:01;3.80;64.70
75931;DHT22;64609;47.052;15.462;2023-12-20T04:51:27;3.80;64.60
75931;DHT22;64609;47.052;15.462;2023-12-20T04:53:52;3.80;64.60
75931;DHT22;64609;47.052;15.462;2023-12-20T04:56:18;3.80;64.70
75931;DHT22;64609;47.052;15.462;2023-12-20T04:58:44;3.80;64.70
75931;DHT22;64609;47.052;15.462;2023-12-20T05:01:09;3.80;64.80
75931;DHT22;64609;47.052;15.462;2023-12-20T05:03:35;3.80;64.70
75931;DHT22;64609;47.052;15.462;2023-12-20T05:06:01;3.80;64.70
75931;DHT22;64609;47.052;15.462;2023-12-20T05:08:27;3.80;64.60
75931;DHT22;64609;47.052;15.462;2023-12-20T05:10:56;3.80;64.60
75931;DHT22;64609;47.052;15.462;2023-12-20T05:13:21;3.80;64.50
75931;DHT22;64609;47.052;15.462;2023-12-20T05:15:47;3.80;64.60
75931;DHT22;64609;47.052;15.462;2023-12-20T05:18:13;3.80;64.60
75931;DHT22;64609;47.052;15.462;2023-12-20T05:20:39;3.80;64.60
75931;DHT22;64609;47.052;15.462;2023-12-20T05:23:05;3.80;64.60
75931;DHT22;64609;47.052;15.462;2023-12-20T05:25:31;3.80;64.60
75931;DHT22;64609;47.052;15.462;2023-12-20T05:27:57;3.80;64.60
75931;DHT22;64609;47.052;15.462;2023-12-20T05:30:23;3.80;64.80
75931;DHT22;64609;47.052;15.462;2023-12-20T05:32:48;3.90;64.80
75931;DHT22;64609;47.052;15.462;2023-12-20T05:35:14;3.80;64.60
75931;DHT22;64609;47.052;15.462;2023-12-20T05:37:41;3.80;64.70
75931;DHT22;64609;47.052;15.462;2023-12-20T05:40:07;3.80;64.60
75931;DHT22;64609;47.052;15.462;2023-12-20T05:42:36;3.80;64.70
75931;DHT22;64609;47.052;15.462;2023-12-20T05:45:01;3.80;64.70
75931;DHT22;64609;47.052;15.462;2023-12-20T05:47:27;3.90;64.70
75931;DHT22;64609;47.052;15.462;2023-12-20T05:49:53;3.80;64.50
75931;DHT22;64609;47.052;15.462;2023-12-20T05:52:18;3.70;64.50
75931;DHT22;64609;47.052;15.462;2023-12-20T05:54:44;3.70;64.60
75931;DHT22;64609;47.052;15.462;2023-12-20T05:57:10;3.70;64.90
75931;DHT22;64609;47.052;15.462;2023-12-20T05:59:37;3.80;65.10
75931;DHT22;64609;47.052;15.462;2023-12-20T06:02:03;3.90;65.00
75931;DHT22;64609;47.052;15.462;2023-12-20T06:04:30;3.90;64.90
75931;DHT22;64609;47.052;15.462;2023-12-20T06:06:55;3.90;65.20
75931;DHT22;64609;47.052;15.462;2023-12-20T06:09:21;4.00;65.30
75931;DHT22;64609;47.052;15.462;2023-12-20T06:11:46;4.00;65.30
75931;DHT22;64609;47.052;15.462;2023-12-20T06:14:12;4.00;65.30
75931;DHT22;64609;47.052;15.462;2023-12-20T06:16:38;4.10;65.60
75931;DHT22;64609;47.052;15.462;2023-12-20T06:19:03;4.20;65.60
75931;DHT22;64609;47.052;15.462;2023-12-20T06:21:29;4.20;65.60
75931;DHT22;64609;47.052;15.462;2023-12-20T06:23:55;4.30;65.70
75931;DHT22;64609;47.052;15.462;2023-12-20T06:26:20;4.40;65.70
75931;DHT22;64609;47.052;15.462;2023-12-20T06:28:46;4.40;65.80
75931;DHT22;64609;47.052;15.462;2023-12-20T06:31:11;4.50;66.00
75931;DHT22;64609;47.052;15.462;2023-12-20T06:33:37;4.50;65.90
75931;DHT22;64609;47.052;15.462;2023-12-20T06:36:06;4.60;65.80
75931;DHT22;64609;47.052;15.462;2023-12-20T06:38:31;4.60;65.90
75931;DHT22;64609;47.052;15.462;2023-12-20T06:40:57;4.70;66.00
75931;DHT22;64609;47.052;15.462;2023-12-20T06:43:24;4.80;66.00
75931;DHT22;64609;47.052;15.462;2023-12-20T06:45:49;4.90;65.90
75931;DHT22;64609;47.052;15.462;2023-12-20T06:48:16;4.90;65.70
75931;DHT22;64609;47.052;15.462;2023-12-20T06:50:42;4.90;65.60
75931;DHT22;64609;47.052;15.462;2023-12-20T06:53:07;5.00;65.80
75931;DHT22;64609;47.052;15.462;2023-12-20T06:55:36;5.00;65.90
75931;DHT22;64609;47.052;15.462;2023-12-20T06:58:03;5.10;65.80
75931;DHT22;64609;47.052;15.462;2023-12-20T07:00:29;5.10;65.80
75931;DHT22;64609;47.052;15.462;2023-12-20T07:02:55;5.10;65.70
75931;DHT22;64609;47.052;15.462;2023-12-20T07:05:21;5.10;65.90
75931;DHT22;64609;47.052;15.462;2023-12-20T07:07:47;5.20;66.10
75931;DHT22;64609;47.052;15.462;2023-12-20T07:10:13;5.20;66.20
75931;DHT22;64609;47.052;15.462;2023-12-20T07:12:39;5.30;65.90
75931;DHT22;64609;47.052;15.462;2023-12-20T07:15:05;5.30;65.70
75931;DHT22;64609;47.052;15.462;2023-12-20T07:17:34;5.20;65.70
75931;DHT22;64609;47.052;15.462;2023-12-20T07:20:00;5.20;65.80
75931;DHT22;64609;47.052;15.462;2023-12-20T07:22:32;5.20;65.90
75931;DHT22;64609;47.052;15.462;2023-12-20T07:24:59;5.30;66.00
75931;DHT22;64609;47.052;15.462;2023-12-20T07:27:25;5.30;65.70
75931;DHT22;64609;47.052;15.462;2023-12-20T07:29:51;5.30;65.60
75931;DHT22;64609;47.052;15.462;2023-12-20T07:32:16;5.30;65.90
75931;DHT22;64609;47.052;15.462;2023-12-20T07:34:42;5.30;65.70
75931;DHT22;64609;47.052;15.462;2023-12-20T07:37:08;5.40;65.90
75931;DHT22;64609;47.052;15.462;2023-12-20T07:39:36;5.50;65.90
75931;DHT22;64609;47.052;15.462;2023-12-20T07:42:01;5.60;65.60
75931;DHT22;64609;47.052;15.462;2023-12-20T07:44:27;5.60;65.60
75931;DHT22;64609;47.052;15.462;2023-12-20T07:46:52;5.50;65.60
75931;DHT22;64609;47.052;15.462;2023-12-20T07:49:19;5.60;65.70
75931;DHT22;64609;47.052;15.462;2023-12-20T07:51:44;5.60;65.70
75931;DHT22;64609;47.052;15.462;2023-12-20T07:54:10;5.70;65.90
75931;DHT22;64609;47.052;15.462;2023-12-20T07:56:36;5.60;65.80
75931;DHT22;64609;47.052;15.462;2023-12-20T07:59:01;5.70;65.80
75931;DHT22;64609;47.052;15.462;2023-12-20T08:01:27;5.70;65.90
75931;DHT22;64609;47.052;15.462;2023-12-20T08:03:53;5.70;66.00
75931;DHT22;64609;47.052;15.462;2023-12-20T08:06:18;5.80;65.80
75931;DHT22;64609;47.052;15.462;2023-12-20T08:08:44;5.90;65.50
75931;DHT22;64609;47.052;15.462;2023-12-20T08:11:10;5.90;65.50
75931;DHT22;64609;47.052;15.462;2023-12-20T08:13:35;5.90;65.50
75931;DHT22;64609;47.052;15.462;2023-12-20T08:16:01;5.90;65.50
75931;DHT22;64609;47.052;15.462;2023-12-20T08:18:28;5.90;65.30
75931;DHT22;64609;47.052;15.462;2023-12-20T08:20:54;5.80;65.20
75931;DHT22;64609;47.052;15.462;2023-12-20T08:23:20;5.80;65.60
75931;DHT22;64609;47.052;15.462;2023-12-20T08:25:49;5.80;65.70
75931;DHT22;64609;47.052;15.462;2023-12-20T08:28:15;5.90;65.80
75931;DHT22;64609;47.052;15.462;2023-12-20T08:30:40;5.90;65.70
75931;DHT22;64609;47.052;15.462;2023-12-20T08:33:06;5.90;65.70
75931;DHT22;64609;47.052;15.462;2023-12-20T08:35:37;5.90;65.50
75931;DHT22;64609;47.052;15.462;2023-12-20T08:38:02;6.00;65.70
75931;DHT22;64609;47.052;15.462;2023-12-20T08:40:29;6.00;65.50
75931;DHT22;64609;47.052;15.462;2023-12-20T08:42:55;6.00;65.80
75931;DHT22;64609;47.052;15.462;2023-12-20T08:45:20;6.10;65.80
75931;DHT22;64609;47.052;15.462;2023-12-20T08:47:46;6.10;65.50
75931;DHT22;64609;47.052;15.462;2023-12-20T08:50:12;6.20;65.60
75931;DHT22;64609;47.052;15.462;2023-12-20T08:52:38;6.30;65.20
75931;DHT22;64609;47.052;15.462;2023-12-20T08:55:03;6.30;64.80
75931;DHT22;64609;47.052;15.462;2023-12-20T08:57:29;6.30;64.80
75931;DHT22;64609;47.052;15.462;2023-12-20T08:59:57;6.30;64.80
75931;DHT22;64609;47.052;15.462;2023-12-20T09:02:22;6.40;64.80
75931;DHT22;64609;47.052;15.462;2023-12-20T09:04:48;6.50;64.70
75931;DHT22;64609;47.052;15.462;2023-12-20T09:07:26;6.50;64.00
75931;DHT22;64609;47.052;15.462;2023-12-20T09:09:53;6.60;64.00
75931;DHT22;64609;47.052;15.462;2023-12-20T09:12:19;6.70;64.10
75931;DHT22;64609;47.052;15.462;2023-12-20T09:14:46;6.70;63.70
75931;DHT22;64609;47.052;15.462;2023-12-20T09:17:12;6.70;63.80
75931;DHT22;64609;47.052;15.462;2023-12-20T09:19:38;6.80;64.00
75931;DHT22;64609;47.052;15.462;2023-12-20T09:22:05;6.90;63.90
75931;DHT22;64609;47.052;15.462;2023-12-20T09:24:30;7.00;64.00
75931;DHT22;64609;47.052;15.462;2023-12-20T09:26:56;7.10;63.90
75931;DHT22;64609;47.052;15.462;2023-12-20T09:29:22;7.60;63.80
75931;DHT22;64609;47.052;15.462;2023-12-20T09:31:48;7.90;62.30
75931;DHT22;64609;47.052;15.462;2023-12-20T09:34:15;8.00;61.80
75931;DHT22;64609;47.052;15.462;2023-12-20T09:36:41;7.90;61.30
75931;DHT22;64609;47.052;15.462;2023-12-20T09:39:16;7.70;61.20
75931;DHT22;64609;47.052;15.462;2023-12-20T09:41:45;7.60;61.60
75931;DHT22;64609;47.052;15.462;2023-12-20T09:44:16;7.60;61.60
75931;DHT22;64609;47.052;15.462;2023-12-20T09:46:44;7.60;61.90
75931;DHT22;64609;47.052;15.462;2023-12-20T09:49:11;7.70;62.00
75931;DHT22;64609;47.052;15.462;2023-12-20T09:51:37;7.80;62.00
75931;DHT22;64609;47.052;15.462;2023-12-20T09:54:03;7.80;61.70
75931;DHT22;64609;47.052;15.462;2023-12-20T09:56:30;7.80;62.50
75931;DHT22;64609;47.052;15.462;2023-12-20T09:58:56;7.90;62.30
75931;DHT22;64609;47.052;15.462;2023-12-20T10:01:26;8.00;62.30
75931;DHT22;64609;47.052;15.462;2023-12-20T10:03:54;8.00;61.90
75931;DHT22;64609;47.052;15.462;2023-12-20T10:06:20;8.20;62.40
75931;DHT22;64609;47.052;15.462;2023-12-20T10:08:46;8.50;62.00
75931;DHT22;64609;47.052;15.462;2023-12-20T10:11:12;9.20;61.10
75931;DHT22;64609;47.052;15.462;2023-12-20T10:13:42;9.80;59.30
75931;DHT22;64609;47.052;15.462;2023-12-20T10:16:07;10.30;57.50
75931;DHT22;64609;47.052;15.462;2023-12-20T10:18:33;10.40;56.30
75931;DHT22;64609;47.052;15.462;2023-12-20T10:21:00;10.30;56.20
75931;DHT22;64609;47.052;15.462;2023-12-20T10:23:26;10.40;56.10
75931;DHT22;64609;47.052;15.462;2023-12-20T10:25:58;10.30;55.70
75931;DHT22;64609;47.052;15.462;2023-12-20T10:28:24;10.40;55.70
75931;DHT22;64609;47.052;15.462;2023-12-20T10:30:54;10.20;56.00
75931;DHT22;64609;47.052;15.462;2023-12-20T10:33:25;10.10;56.40
75931;DHT22;64609;47.052;15.462;2023-12-20T10:35:52;10.00;56.60
75931;DHT22;64609;47.052;15.462;2023-12-20T10:38:18;9.90;56.30
75931;DHT22;64609;47.052;15.462;2023-12-20T10:40:45;10.30;57.30
75931;DHT22;64609;47.052;15.462;2023-12-20T10:43:11;11.30;55.70
75931;DHT22;64609;47.052;15.462;2023-12-20T10:45:37;11.80;53.30
75931;DHT22;64609;47.052;15.462;2023-12-20T10:48:04;11.90;52.90
75931;DHT22;64609;47.052;15.462;2023-12-20T10:50:30;12.50;51.70
75931;DHT22;64609;47.052;15.462;2023-12-20T10:52:57;12.70;50.60
75931;DHT22;64609;47.052;15.462;2023-12-20T10:55:23;12.40;50.70
75931;DHT22;64609;47.052;15.462;2023-12-20T10:57:53;11.90;50.90
75931;DHT22;64609;47.052;15.462;2023-12-20T11:00:21;11.50;51.80
75931;DHT22;64609;47.052;15.462;2023-12-20T11:02:49;11.10;52.10
75931;DHT22;64609;47.052;15.462;2023-12-20T11:05:33;10.90;53.00
75931;DHT22;64609;47.052;15.462;2023-12-20T11:08:07;10.60;53.70
75931;DHT22;64609;47.052;15.462;2023-12-20T11:10:50;10.40;54.40
75931;DHT22;64609;47.052;15.462;2023-12-20T11:13:32;10.20;54.50
75931;DHT22;64609;47.052;15.462;2023-12-20T11:15:59;10.10;54.70
75931;DHT22;64609;47.052;15.462;2023-12-20T11:18:29;10.00;55.10
75931;DHT22;64609;47.052;15.462;2023-12-20T11:21:00;9.90;55.60
75931;DHT22;64609;47.052;15.462;2023-12-20T11:23:26;9.80;55.90
75931;DHT22;64609;47.052;15.462;2023-12-20T11:25:56;9.70;55.80
75931;DHT22;64609;47.052;15.462;2023-12-20T11:28:25;9.60;56.10
75931;DHT22;64609;47.052;15.462;2023-12-20T11:30:56;9.60;56.50
75931;DHT22;64609;47.052;15.462;2023-12-20T11:33:36;9.60;56.50
75931;DHT22;64609;47.052;15.462;2023-12-20T11:36:02;9.70;56.50
75931;DHT22;64609;47.052;15.462;2023-12-20T11:38:36;9.70;56.60
75931;DHT22;64609;47.052;15.462;2023-12-20T11:41:05;9.70;56.70
75931;DHT22;64609;47.052;15.462;2023-12-20T11:43:38;9.70;57.10
75931;DHT22;64609;47.052;15.462;2023-12-20T11:46:05;9.70;57.10
75931;DHT22;64609;47.052;15.462;2023-12-20T11:48:32;9.80;57.70
75931;DHT22;64609;47.052;15.462;2023-12-20T11:50:58;9.80;56.80
75931;DHT22;64609;47.052;15.462;2023-12-20T11:53:24;9.80;56.90
75931;DHT22;64609;47.052;15.462;2023-12-20T11:55:50;9.80;57.20
75931;DHT22;64609;47.052;15.462;2023-12-20T11:58:16;9.80;57.10
75931;DHT22;64609;47.052;15.462;2023-12-20T12:00:42;9.80;57.10
75931;DHT22;64609;47.052;15.462;2023-12-20T12:03:09;9.90;57.10
75931;DHT22;64609;47.052;15.462;2023-12-20T12:05:34;10.00;57.00
75931;DHT22;64609;47.052;15.462;2023-12-20T12:08:01;10.00;56.70
75931;DHT22;64609;47.052;15.462;2023-12-20T12:10:28;10.10;56.40
75931;DHT22;64609;47.052;15.462;2023-12-20T12:12:54;10.10;56.70
75931;DHT22;64609;47.052;15.462;2023-12-20T12:15:19;10.20;56.20
75931;DHT22;64609;47.052;15.462;2023-12-20T12:17:53;10.20;55.80
75931;DHT22;64609;47.052;15.462;2023-12-20T12:20:20;10.20;55.90
75931;DHT22;64609;47.052;15.462;2023-12-20T12:22:45;10.20;56.30
75931;DHT22;64609;47.052;15.462;2023-12-20T12:25:13;10.30;56.40
75931;DHT22;64609;47.052;15.462;2023-12-20T12:27:40;10.30;56.00
75931;DHT22;64609;47.052;15.462;2023-12-20T12:30:07;10.30;56.10
75931;DHT22;64609;47.052;15.462;2023-12-20T12:32:33;10.30;56.20
75931;DHT22;64609;47.052;15.462;2023-12-20T12:34:59;10.20;56.60
75931;DHT22;64609;47.052;15.462;2023-12-20T12:37:25;10.20;56.60
75931;DHT22;64609;47.052;15.462;2023-12-20T12:39:53;10.20;56.80
75931;DHT22;64609;47.052;15.462;2023-12-20T12:42:20;10.20;56.90
75931;DHT22;64609;47.052;15.462;2023-12-20T12:44:46;10.20;56.90
75931;DHT22;64609;47.052;15.462;2023-12-20T12:47:12;10.20;56.90
75931;DHT22;64609;47.052;15.462;2023-12-20T12:49:40;10.20;56.50
75931;DHT22;64609;47.052;15.462;2023-12-20T12:52:05;10.20;56.30
75931;DHT22;64609;47.052;15.462;2023-12-20T12:54:31;10.20;56.40
75931;DHT22;64609;47.052;15.462;2023-12-20T12:56:56;10.20;56.50
75931;DHT22;64609;47.052;15.462;2023-12-20T12:59:23;10.20;56.60
75931;DHT22;64609;47.052;15.462;2023-12-20T13:01:49;10.20;56.80
75931;DHT22;64609;47.052;15.462;2023-12-20T13:04:14;10.20;57.10
75931;DHT22;64609;47.052;15.462;2023-12-20T13:06:40;10.20;57.20
75931;DHT22;64609;47.052;15.462;2023-12-20T13:09:07;10.30;57.50
75931;DHT22;64609;47.052;15.462;2023-12-20T13:11:35;10.30;57.40
75931;DHT22;64609;47.052;15.462;2023-12-20T13:14:01;10.40;57.80
75931;DHT22;64609;47.052;15.462;2023-12-20T13:16:26;10.50;57.30
75931;DHT22;64609;47.052;15.462;2023-12-20T13:18:52;10.50;57.10
75931;DHT22;64609;47.052;15.462;2023-12-20T13:21:18;10.60;57.00
75931;DHT22;64609;47.052;15.462;2023-12-20T13:23:43;10.60;56.90
75931;DHT22;64609;47.052;15.462;2023-12-20T13:26:09;10.70;57.00
75931;DHT22;64609;47.052;15.462;2023-12-20T13:28:34;10.70;57.00
75931;DHT22;64609;47.052;15.462;2023-12-20T13:31:00;10.80;56.90
75931;DHT22;64609;47.052;15.462;2023-12-20T13:33:26;10.80;56.80
75931;DHT22;64609;47.052;15.462;2023-12-20T13:35:51;10.90;56.90
75931;DHT22;64609;47.052;15.462;2023-12-20T13:38:17;10.90;56.70
75931;DHT22;64609;47.052;15.462;2023-12-20T13:40:43;11.00;56.70
75931;DHT22;64609;47.052;15.462;2023-12-20T13:43:08;11.00;56.60
75931;DHT22;64609;47.052;15.462;2023-12-20T13:45:36;11.00;56.60
75931;DHT22;64609;47.052;15.462;2023-12-20T13:48:02;11.00;56.50
75931;DHT22;64609;47.052;15.462;2023-12-20T13:50:28;11.00;56.60
75931;DHT22;64609;47.052;15.462;2023-12-20T13:52:53;11.00;56.90
75931;DHT22;64609;47.052;15.462;2023-12-20T13:55:19;10.90;57.10
75931;DHT22;64609;47.052;15.462;2023-12-20T13:57:47;10.90;57.30
75931;DHT22;64609;47.052;15.462;2023-12-20T14:00:14;10.90;57.40
75931;DHT22;64609;47.052;15.462;2023-12-20T14:02:41;10.90;57.40
75931;DHT22;64609;47.052;15.462;2023-12-20T14:05:07;10.80;57.40
75931;DHT22;64609;47.052;15.462;2023-12-20T14:07:33;10.70;57.60
75931;DHT22;64609;47.052;15.462;2023-12-20T14:09:58;10.70;57.90
75931;DHT22;64609;47.052;15.462;2023-12-20T14:12:25;10.70;58.00
75931;DHT22;64609;47.052;15.462;2023-12-20T14:14:50;10.80;58.00
75931;DHT22;64609;47.052;15.462;2023-12-20T14:17:17;10.70;58.10
75931;DHT22;64609;47.052;15.462;2023-12-20T14:19:43;10.60;58.20
75931;DHT22;64609;47.052;15.462;2023-12-20T14:22:09;10.60;58.40
75931;DHT22;64609;47.052;15.462;2023-12-20T14:24:35;10.60;58.60
75931;DHT22;64609;47.052;15.462;2023-12-20T14:27:01;10.50;58.60
75931;DHT22;64609;47.052;15.462;2023-12-20T14:29:27;10.50;58.80
75931;DHT22;64609;47.052;15.462;2023-12-20T14:31:53;10.40;59.00
75931;DHT22;64609;47.052;15.462;2023-12-20T14:34:18;10.40;59.10
75931;DHT22;64609;47.052;15.462;2023-12-20T14:36:44;10.30;59.30
75931;DHT22;64609;47.052;15.462;2023-12-20T14:39:09;10.20;59.50
75931;DHT22;64609;47.052;15.462;2023-12-20T14:41:38;10.20;59.70
75931;DHT22;64609;47.052;15.462;2023-12-20T14:44:05;10.20;59.90
75931;DHT22;64609;47.052;15.462;2023-12-20T14:46:31;10.10;59.80
75931;DHT22;64609;47.052;15.462;2023-12-20T14:48:56;10.10;59.80
75931;DHT22;64609;47.052;15.462;2023-12-20T14:51:22;10.00;59.90
75931;DHT22;64609;47.052;15.462;2023-12-20T14:53:48;9.90;60.00
75931;DHT22;64609;47.052;15.462;2023-12-20T14:56:14;9.80;60.30
75931;DHT22;64609;47.052;15.462;2023-12-20T14:58:40;9.80;60.50
75931;DHT22;64609;47.052;15.462;2023-12-20T15:01:05;9.70;60.60
75931;DHT22;64609;47.052;15.462;2023-12-20T15:03:34;9.70;60.60
75931;DHT22;64609;47.052;15.462;2023-12-20T15:06:00;9.60;60.50
75931;DHT22;64609;47.052;15.462;2023-12-20T15:08:25;9.60;60.80
75931;DHT22;64609;47.052;15.462;2023-12-20T15:10:51;9.50;60.80
75931;DHT22;64609;47.052;15.462;2023-12-20T15:13:17;9.40;61.00
75931;DHT22;64609;47.052;15.462;2023-12-20T15:15:42;9.30;61.30
75931;DHT22;64609;47.052;15.462;2023-12-20T15:18:08;9.20;61.50
75931;DHT22;64609;47.052;15.462;2023-12-20T15:20:34;9.10;61.80
75931;DHT22;64609;47.052;15.462;2023-12-20T15:23:02;9.00;61.60